FYWH/WDH METAR and TAF weather

Enter ICAO airport designator
Station Type Date Time Source
FYWH METAR 2021/06/22 18:00 UTC NOAA

FYWH 221800Z 00000KT CAVOK 07/M00 Q1026 NOSIG


Station Type Date Time Source
FYWH Decoded METAR 2021/06/22 18:00 UTC NOAA

J. G. Strijdom, Namibia (FYWH) 22-29S 017-28E 1700M
Jun 22, 2021 - 02:00 PM EDT / 2021.06.22 1800 UTC
Wind: Calm:0
Visibility: greater than 7 mile(s):0
Temperature: 44 F (7 C)
Dew Point: 32 F (0 C)
Relative Humidity: 60%
Pressure (altimeter): 30.30 in. Hg (1026 hPa)
ob: FYWH 221800Z 00000KT CAVOK 07/M00 Q1026 NOSIG
cycle: 18

Station Type Date Time Source
FYWH TAF 2021/06/22 18:54 UTC NOAA

TAF FYWH 221600Z 2218/2318 35005KT CAVOK

Example: see airport list